Time;durP1;ratioP1;P1;durP2;ratioP2;P2;SDS_P1;SDS_P2;PMS_P1;PMS_P2;Temp;Humidity;BMP_temperature;BMP_pressure;BME280_temperature;BME280_humidity;BME280_pressure;Samples;Min_cycle;Max_cycle;Signal;HPM_P1;HPM_P2
2021/01/10 00:00:17;;;;;;;302.65;147.25;;;153.90;1792.00;;;;;;4957649;28;20548;-70
2021/01/10 00:02:44;;;;;;;240.35;126.82;;;154.10;1792.00;;;;;;4957695;28;20027;-70
2021/01/10 00:05:12;;;;;;;206.60;110.60;;;153.90;1792.00;;;;;;4947156;28;20036;-71
2021/01/10 00:07:38;;;;;;;225.32;117.75;;;153.90;1792.00;;;;;;4938491;29;20380;-68
2021/01/10 00:10:08;;;;;;;310.98;153.18;;;153.80;1792.00;;;;;;4938258;29;20390;-69
2021/01/10 00:12:37;;;;;;;379.77;176.25;;;154.00;1792.00;;;;;;4938530;29;20024;-72
2021/01/10 00:15:10;;;;;;;187.10;106.78;;;153.90;1792.00;;;;;;4938182;29;20036;-72
2021/01/10 00:17:46;;;;;;;168.38;106.95;;;153.80;1792.00;;;;;;4938149;29;20101;-69
2021/01/10 00:20:13;;;;;;;140.02;88.82;;;153.80;1792.00;;;;;;4938328;29;20024;-72
2021/01/10 00:22:39;;;;;;;131.73;85.88;;;153.90;1792.00;;;;;;4937935;29;20047;-70
2021/01/10 00:25:10;;;;;;;130.02;87.57;;;128.80;1843.20;;;;;;4938162;29;20035;-70
2021/01/10 00:27:37;;;;;;;191.80;128.65;;;128.70;1843.20;;;;;;4937945;29;20047;-70
2021/01/10 00:30:06;;;;;;;166.88;101.75;;;153.70;1817.60;;;;;;4938179;29;20159;-70
2021/01/10 00:32:32;;;;;;;188.75;96.05;;;153.80;1792.00;;;;;;4937890;29;20031;-70
2021/01/10 00:34:58;;;;;;;195.88;118.00;;;153.90;1792.00;;;;;;4936508;29;20028;-70
2021/01/10 00:37:24;;;;;;;142.38;83.30;;;153.70;1817.60;;;;;;4938184;29;20023;-71
2021/01/10 00:39:51;;;;;;;106.47;65.72;;;153.70;1817.60;;;;;;4937885;29;20103;-71
2021/01/10 00:42:17;;;;;;;114.00;70.28;;;153.70;1792.00;;;;;;4938076;29;20043;-71
2021/01/10 00:44:45;;;;;;;118.30;71.53;;;153.90;1792.00;;;;;;4937731;29;20032;-70
2021/01/10 00:47:11;;;;;;;117.88;69.35;;;153.90;1792.00;;;;;;4937891;29;20494;-70
2021/01/10 00:49:38;;;;;;;111.32;67.55;;;153.80;1817.60;;;;;;4937589;29;20110;-72
2021/01/10 00:52:05;;;;;;;139.77;85.07;;;153.90;1792.00;;;;;;4936226;29;20391;-71
2021/01/10 00:54:31;;;;;;;205.82;114.53;;;154.00;1792.00;;;;;;4937795;29;20087;-74
2021/01/10 00:56:57;;;;;;;222.32;117.75;;;154.00;1792.00;;;;;;4937441;29;20052;-74
2021/01/10 00:59:24;;;;;;;151.02;94.35;;;153.70;1817.60;;;;;;4936527;29;20059;-71
2021/01/10 01:01:50;;;;;;;143.45;87.65;;;153.70;1843.20;;;;;;4937340;29;20032;-70
2021/01/10 01:04:17;;;;;;;192.65;116.97;;;153.70;1843.20;;;;;;4937350;29;20023;-73
2021/01/10 01:06:42;;;;;;;135.00;85.70;;;153.90;1817.60;;;;;;4937391;29;20031;-71
2021/01/10 01:09:08;;;;;;;122.82;75.90;;;153.80;1817.60;;;;;;4937500;29;20032;-70
2021/01/10 01:11:36;;;;;;;129.00;81.38;;;153.90;1817.60;;;;;;4935789;29;20079;-71
2021/01/10 01:14:04;;;;;;;169.20;106.03;;;153.70;1817.60;;;;;;4937288;29;20398;-71
2021/01/10 01:16:30;;;;;;;186.13;117.25;;;128.90;1817.60;;;;;;4937132;29;20066;-70
2021/01/10 01:18:55;;;;;;;176.63;108.63;;;153.60;1843.20;;;;;;4937032;29;20479;-71
2021/01/10 01:21:22;;;;;;;132.27;86.95;;;128.90;1843.20;;;;;;4937385;29;20055;-71
2021/01/10 01:23:48;;;;;;;121.72;76.90;;;153.80;1843.20;;;;;;4936694;29;20047;-71
2021/01/10 01:26:15;;;;;;;103.47;65.10;;;153.80;1843.20;;;;;;4937211;29;20426;-71
2021/01/10 01:28:43;;;;;;;107.78;66.43;;;153.90;1817.60;;;;;;4937019;29;20047;-71
2021/01/10 01:31:10;;;;;;;112.95;69.78;;;153.90;1817.60;;;;;;4937142;29;20039;-72
2021/01/10 01:33:36;;;;;;;121.55;78.20;;;154.00;1792.00;;;;;;4936740;29;20028;-74
2021/01/10 01:36:02;;;;;;;118.53;74.70;;;154.10;1792.00;;;;;;4937082;29;20035;-71
2021/01/10 01:38:28;;;;;;;109.57;69.25;;;154.10;1792.00;;;;;;4936773;29;20537;-71
2021/01/10 01:41:00;;;;;;;115.63;71.78;;;154.20;1740.80;;;;;;4936735;29;20475;-70
2021/01/10 01:43:26;;;;;;;127.80;75.30;;;154.10;1740.80;;;;;;4936861;29;20035;-70
2021/01/10 01:45:52;;;;;;;129.05;75.95;;;154.20;1740.80;;;;;;4936324;29;20031;-71
2021/01/10 01:48:18;;;;;;;123.78;77.72;;;154.20;1766.40;;;;;;4937008;29;20115;-70
2021/01/10 01:50:44;;;;;;;116.07;70.75;;;154.20;1766.40;;;;;;4936387;29;20122;-70
2021/01/10 01:53:10;;;;;;;128.23;79.75;;;154.20;1766.40;;;;;;4935203;29;20431;-70
2021/01/10 01:55:36;;;;;;;130.45;77.88;;;154.30;1740.80;;;;;;4936395;29;20066;-69
2021/01/10 01:58:05;;;;;;;141.43;87.90;;;154.30;1766.40;;;;;;4936610;29;20027;-69
2021/01/10 02:00:32;;;;;;;151.25;90.47;;;154.20;1766.40;;;;;;4936218;29;20031;-69
2021/01/10 02:02:57;;;;;;;155.68;96.22;;;154.30;1766.40;;;;;;4936186;29;20445;-69
2021/01/10 02:05:27;;;;;;;163.80;102.50;;;154.20;1792.00;;;;;;4936449;29;20115;-70
2021/01/10 02:07:56;;;;;;;161.90;100.15;;;154.20;1766.40;;;;;;4936051;29;20039;-69
2021/01/10 02:10:25;;;;;;;159.73;95.00;;;154.30;1766.40;;;;;;4935991;29;20490;-69
2021/01/10 02:12:52;;;;;;;152.90;90.95;;;153.90;1843.20;;;;;;4936085;29;20115;-69
2021/01/10 02:15:24;;;;;;;120.90;73.15;;;154.10;1817.60;;;;;;4936261;29;20027;-69
2021/01/10 02:17:53;;;;;;;121.70;70.50;;;128.70;1868.80;;;;;;4936042;29;20023;-69
2021/01/10 02:20:28;;;;;;;111.70;70.53;;;128.70;1894.40;;;;;;4935944;29;20038;-70
2021/01/10 02:23:09;;;;;;;108.75;63.40;;;128.80;1868.80;;;;;;4935736;29;20043;-69
2021/01/10 02:25:36;;;;;;;105.25;62.70;;;128.60;1868.80;;;;;;4935785;29;20055;-69
2021/01/10 02:28:04;;;;;;;103.60;62.78;;;153.60;1843.20;;;;;;4935905;29;20043;-70
2021/01/10 02:30:32;;;;;;;112.90;67.13;;;153.80;1817.60;;;;;;4935810;29;20095;-70
2021/01/10 02:33:07;;;;;;;101.40;63.08;;;153.70;1843.20;;;;;;4935790;29;20046;-70
2021/01/10 02:35:34;;;;;;;117.90;70.28;;;153.70;1868.80;;;;;;4935848;29;20023;-70
2021/01/10 02:38:08;;;;;;;109.82;66.28;;;153.80;1843.20;;;;;;4935843;29;20023;-70
2021/01/10 02:40:40;;;;;;;117.50;71.53;;;153.90;1817.60;;;;;;4935659;29;20498;-70
2021/01/10 02:43:18;;;;;;;112.82;68.70;;;153.90;1817.60;;;;;;4935619;29;20071;-71
2021/01/10 02:45:47;;;;;;;110.80;67.22;;;154.00;1792.00;;;;;;4935727;29;20382;-69
2021/01/10 02:48:14;;;;;;;104.63;64.85;;;153.90;1817.60;;;;;;4935782;29;20036;-70
2021/01/10 02:50:40;;;;;;;110.50;64.57;;;153.90;1817.60;;;;;;4935511;29;20494;-70
2021/01/10 02:53:06;;;;;;;116.82;72.38;;;153.80;1843.20;;;;;;4935525;29;20035;-69
2021/01/10 02:55:32;;;;;;;114.90;70.75;;;153.80;1817.60;;;;;;4935444;29;20027;-69
2021/01/10 02:58:23;;;;;;;122.57;71.72;;;153.80;1817.60;;;;;;4935685;29;20032;-69
2021/01/10 03:00:51;;;;;;;121.10;73.22;;;153.60;1843.20;;;;;;4935844;29;20024;-69
2021/01/10 03:03:18;;;;;;;117.18;70.78;;;153.80;1817.60;;;;;;4935314;29;20024;-70
2021/01/10 03:05:45;;;;;;;113.45;65.72;;;153.80;1817.60;;;;;;4935413;29;20039;-69
2021/01/10 03:08:12;;;;;;;100.30;61.05;;;153.70;1817.60;;;;;;4935230;29;20107;-70
2021/01/10 03:10:38;;;;;;;104.07;61.15;;;153.60;1817.60;;;;;;4935664;29;20020;-70
2021/01/10 03:13:04;;;;;;;107.28;61.47;;;153.80;1817.60;;;;;;4935434;29;20032;-72
2021/01/10 03:15:32;;;;;;;95.57;59.35;;;153.80;1817.60;;;;;;4935288;29;20024;-71
2021/01/10 03:18:16;;;;;;;109.68;64.10;;;153.90;1817.60;;;;;;4934203;29;20044;-71
2021/01/10 03:20:42;;;;;;;102.70;64.68;;;154.00;1792.00;;;;;;4935038;29;20059;-72
2021/01/10 03:23:09;;;;;;;116.25;71.85;;;154.10;1792.00;;;;;;4937432;29;20118;-70
2021/01/10 03:25:34;;;;;;;116.95;72.50;;;153.80;1817.60;;;;;;4938985;29;20111;-70
2021/01/10 03:28:00;;;;;;;115.85;70.00;;;128.00;1971.20;;;;;;4938915;29;20130;-70
2021/01/10 03:30:26;;;;;;;106.10;62.83;;;128.10;1971.20;;;;;;4939234;29;20023;-70
2021/01/10 03:32:51;;;;;;;107.88;65.38;;;128.40;1920.00;;;;;;4939042;29;20479;-70
2021/01/10 03:35:17;;;;;;;107.47;70.10;;;128.40;1920.00;;;;;;4939010;29;20446;-71
2021/01/10 03:37:44;;;;;;;100.32;62.67;;;128.80;1868.80;;;;;;4938830;29;20028;-70
2021/01/10 03:40:10;;;;;;;100.13;62.88;;;153.60;1843.20;;;;;;4939173;29;20107;-69
2021/01/10 03:42:36;;;;;;;96.22;58.38;;;153.80;1843.20;;;;;;4938846;29;20100;-71
2021/01/10 03:45:04;;;;;;;100.25;60.53;;;128.90;1843.20;;;;;;4938983;29;20031;-70
2021/01/10 03:47:30;;;;;;;94.90;57.95;;;128.80;1868.80;;;;;;4938621;29;20122;-70
2021/01/10 03:49:56;;;;;;;98.65;61.42;;;128.40;1894.40;;;;;;4937122;29;20515;-70
2021/01/10 03:52:22;;;;;;;101.63;62.42;;;128.40;1920.00;;;;;;4937212;29;20130;-70
2021/01/10 03:54:47;;;;;;;95.00;58.90;;;103.20;1971.20;;;;;;4938638;29;20035;-70
2021/01/10 03:57:13;;;;;;;98.68;60.22;;;103.30;1945.60;;;;;;4938812;29;20106;-70
2021/01/10 03:59:39;;;;;;;100.88;61.83;;;103.20;1971.20;;;;;;4938615;29;20034;-71
2021/01/10 04:02:05;;;;;;;100.30;62.35;;;103.20;1971.20;;;;;;4938701;29;20023;-69
2021/01/10 04:04:31;;;;;;;105.10;64.15;;;128.00;1971.20;;;;;;4938341;29;20028;-72
2021/01/10 04:06:56;;;;;;;105.43;68.32;;;128.00;1971.20;;;;;;4938379;29;20058;-72
2021/01/10 04:09:22;;;;;;;98.50;61.08;;;103.10;1996.80;;;;;;4938379;29;20027;-71
2021/01/10 04:11:48;;;;;;;101.53;62.63;;;103.30;1971.20;;;;;;4938835;29;20027;-74
2021/01/10 04:14:13;;;;;;;108.25;65.15;;;128.40;1920.00;;;;;;4938323;29;20128;-71
2021/01/10 04:16:39;;;;;;;100.80;63.00;;;128.70;1894.40;;;;;;4938516;29;20036;-70
2021/01/10 04:19:05;;;;;;;101.15;66.35;;;153.60;1868.80;;;;;;4938276;29;20398;-72
2021/01/10 04:21:33;;;;;;;103.03;63.35;;;128.80;1868.80;;;;;;4938029;29;20483;-72
2021/01/10 04:24:00;;;;;;;92.13;59.33;;;128.90;1868.80;;;;;;4937921;29;20082;-72
2021/01/10 04:26:26;;;;;;;90.45;61.83;;;153.80;1843.20;;;;;;4938114;29;20032;-72
2021/01/10 04:28:52;;;;;;;90.32;60.33;;;154.00;1817.60;;;;;;4938371;29;20036;-70
2021/01/10 04:31:17;;;;;;;85.90;56.58;;;154.10;1792.00;;;;;;4938079;29;20059;-70
2021/01/10 04:33:43;;;;;;;87.38;52.95;;;153.90;1817.60;;;;;;4938044;29;20032;-70
2021/01/10 04:36:09;;;;;;;89.68;57.67;;;153.90;1792.00;;;;;;4937717;29;20032;-70
2021/01/10 04:38:34;;;;;;;85.63;55.58;;;154.10;1792.00;;;;;;4938317;29;20062;-72
2021/01/10 04:41:00;;;;;;;86.70;55.83;;;154.10;1792.00;;;;;;4937905;29;20498;-69
2021/01/10 04:43:26;;;;;;;91.22;59.72;;;153.90;1817.60;;;;;;4938004;29;20390;-71
2021/01/10 04:45:52;;;;;;;93.88;62.97;;;154.00;1817.60;;;;;;4937622;29;20024;-71
2021/01/10 04:48:18;;;;;;;98.30;62.85;;;153.90;1817.60;;;;;;4937755;29;20427;-71
2021/01/10 04:50:46;;;;;;;92.82;63.70;;;154.00;1817.60;;;;;;4937591;29;20055;-72
2021/01/10 04:53:16;;;;;;;99.60;66.65;;;154.00;1817.60;;;;;;4937498;29;20032;-70
2021/01/10 04:55:44;;;;;;;98.78;68.18;;;154.10;1817.60;;;;;;4937707;29;20063;-69
2021/01/10 04:58:10;;;;;;;101.18;61.72;;;154.20;1817.60;;;;;;4937522;29;20036;-69
2021/01/10 05:00:35;;;;;;;108.30;65.75;;;153.70;1843.20;;;;;;4937765;29;20547;-69
2021/01/10 05:03:11;;;;;;;111.28;66.68;;;153.90;1843.20;;;;;;4937441;29;20513;-69
2021/01/10 05:05:38;;;;;;;100.45;65.45;;;153.90;1843.20;;;;;;4937114;29;20016;-67
2021/01/10 05:08:09;;;;;;;102.60;64.82;;;153.90;1843.20;;;;;;4937482;29;20047;-70
2021/01/10 05:10:35;;;;;;;104.25;70.22;;;153.80;1843.20;;;;;;4937307;29;20431;-70
2021/01/10 05:13:01;;;;;;;109.28;68.68;;;153.90;1843.20;;;;;;4937370;29;20122;-70
2021/01/10 05:15:27;;;;;;;100.47;65.22;;;154.10;1817.60;;;;;;4935933;29;20027;-70
2021/01/10 05:17:55;;;;;;;100.35;63.60;;;154.20;1817.60;;;;;;4937394;29;20382;-71
2021/01/10 05:20:24;;;;;;;79.35;50.78;;;154.00;1817.60;;;;;;4936806;29;20234;-68
2021/01/10 05:22:50;;;;;;;75.70;48.80;;;153.70;1843.20;;;;;;4936942;29;20047;-68
2021/01/10 05:25:16;;;;;;;77.25;48.38;;;153.80;1843.20;;;;;;4935731;29;20079;-71
2021/01/10 05:27:46;;;;;;;75.05;53.55;;;153.80;1843.20;;;;;;4936852;29;20574;-70
2021/01/10 05:30:13;;;;;;;78.13;50.72;;;153.90;1817.60;;;;;;4937117;29;20517;-70
2021/01/10 05:32:39;;;;;;;82.03;54.65;;;153.90;1817.60;;;;;;4936867;29;20070;-71
2021/01/10 05:35:05;;;;;;;74.40;50.10;;;153.90;1817.60;;;;;;4937035;29;20051;-69
2021/01/10 05:37:31;;;;;;;83.93;51.42;;;153.60;1843.20;;;;;;4936670;29;20031;-70
2021/01/10 05:39:56;;;;;;;86.20;53.78;;;128.40;1920.00;;;;;;4937118;29;20031;-70
2021/01/10 05:42:28;;;;;;;88.78;58.08;;;103.10;1996.80;;;;;;4936765;29;20502;-71
2021/01/10 05:44:55;;;;;;;82.13;51.97;;;128.20;1945.60;;;;;;4936251;29;20394;-71
2021/01/10 05:47:21;;;;;;;82.38;52.45;;;128.40;1920.00;;;;;;4936519;29;20215;-71
2021/01/10 05:49:52;;;;;;;86.78;54.90;;;128.90;1868.80;;;;;;4936754;29;20016;-71
2021/01/10 05:52:18;;;;;;;100.47;61.03;;;153.70;1843.20;;;;;;4936528;29;20403;-71
2021/01/10 05:54:48;;;;;;;101.78;63.80;;;153.80;1843.20;;;;;;4936457;29;20115;-71
2021/01/10 05:57:25;;;;;;;100.85;63.53;;;153.90;1817.60;;;;;;4936495;29;20035;-70
2021/01/10 05:59:52;;;;;;;92.80;57.13;;;153.80;1817.60;;;;;;4936226;29;20022;-72
2021/01/10 06:02:35;;;;;;;116.35;70.45;;;154.00;1817.60;;;;;;4936213;29;20030;-71
2021/01/10 06:05:18;;;;;;;98.20;62.95;;;153.80;1817.60;;;;;;4936321;29;20474;-71
2021/01/10 06:07:46;;;;;;;98.53;59.80;;;128.20;1945.60;;;;;;4935971;29;20039;-71
2021/01/10 06:10:12;;;;;;;97.93;61.72;;;128.60;1894.40;;;;;;4936159;29;20028;-71
2021/01/10 06:12:42;;;;;;;86.20;53.92;;;128.90;1868.80;;;;;;4936194;29;20023;-71
2021/01/10 06:15:15;;;;;;;106.78;66.22;;;128.90;1868.80;;;;;;4935916;29;20020;-70
2021/01/10 06:17:45;;;;;;;121.82;75.15;;;153.60;1843.20;;;;;;4936181;29;20020;-71
2021/01/10 06:20:23;;;;;;;103.82;66.75;;;128.90;1868.80;;;;;;4935873;29;20028;-72
2021/01/10 06:22:51;;;;;;;91.20;58.22;;;128.90;1868.80;;;;;;4935718;29;20098;-71
2021/01/10 06:25:21;;;;;;;99.15;63.90;;;153.60;1843.20;;;;;;4936035;29;20106;-70
2021/01/10 06:28:11;;;;;;;99.13;62.90;;;153.80;1843.20;;;;;;4935663;29;20031;-70
2021/01/10 06:30:44;;;;;;;95.05;59.40;;;153.90;1817.60;;;;;;4935998;29;20016;-70
2021/01/10 06:33:16;;;;;;;98.20;65.20;;;154.10;1792.00;;;;;;4935958;29;20023;-70
2021/01/10 06:35:42;;;;;;;123.25;89.07;;;154.10;1792.00;;;;;;4935509;29;20028;-70
2021/01/10 06:38:10;;;;;;;64.22;43.03;;;154.20;1792.00;;;;;;4935927;29;20032;-72
2021/01/10 06:40:39;;;;;;;63.42;44.20;;;153.90;1792.00;;;;;;4935641;29;20044;-71
2021/01/10 06:43:06;;;;;;;65.80;43.95;;;153.60;1843.20;;;;;;4935947;29;20023;-72
2021/01/10 06:45:41;;;;;;;77.93;50.83;;;153.70;1843.20;;;;;;4935707;29;20028;-70
2021/01/10 06:48:08;;;;;;;100.72;59.78;;;128.90;1843.20;;;;;;4935638;29;20049;-70
2021/01/10 06:50:34;;;;;;;93.45;58.20;;;128.90;1868.80;;;;;;4935729;29;20024;-70
2021/01/10 06:53:05;;;;;;;99.28;62.28;;;128.80;1894.40;;;;;;4935352;29;20107;-71
2021/01/10 06:55:31;;;;;;;89.07;56.95;;;128.70;1894.40;;;;;;4935698;29;20110;-70
2021/01/10 06:57:58;;;;;;;98.93;60.28;;;128.70;1894.40;;;;;;4934584;29;20028;-70
2021/01/10 07:00:24;;;;;;;95.78;62.25;;;128.80;1868.80;;;;;;4935613;29;20087;-70
2021/01/10 07:03:09;;;;;;;82.70;51.05;;;128.60;1894.40;;;;;;4935518;29;20028;-71
2021/01/10 07:06:13;;;;;;;87.30;54.60;;;128.40;1920.00;;;;;;4935500;29;20024;-71
2021/01/10 07:08:44;;;;;;;97.55;57.33;;;128.30;1945.60;;;;;;4914302;29;20114;-70
2021/01/10 07:11:22;;;;;;;108.95;70.28;;;128.40;1945.60;;;;;;4914589;29;20483;-71
2021/01/10 07:14:14;;;;;;;108.55;69.13;;;128.40;1945.60;;;;;;4914320;29;20080;-71
2021/01/10 07:16:45;;;;;;;113.53;72.78;;;128.50;1920.00;;;;;;4914369;29;20512;-68
2021/01/10 07:19:12;;;;;;;;;;;128.60;1920.00;;;;;;4914958;29;20511;-68
2021/01/10 07:21:40;;;;;;;123.72;78.72;;;128.30;1971.20;;;;;;4914201;29;19907;-68
2021/01/10 07:24:21;;;;;;;129.40;82.90;;;128.60;1920.00;;;;;;4913982;29;20497;-68
2021/01/10 07:26:56;;;;;;;131.80;88.53;;;128.80;1894.40;;;;;;4914454;29;20127;-68
2021/01/10 07:29:28;;;;;;;95.03;59.80;;;128.80;1894.40;;;;;;4913995;29;20495;-67
2021/01/10 07:32:04;;;;;;;111.82;68.20;;;128.40;1945.60;;;;;;4914428;28;20546;-67
2021/01/10 07:34:31;;;;;;;99.25;60.45;;;103.20;1996.80;;;;;;4914477;29;20032;-68
2021/01/10 07:37:02;;;;;;;107.88;71.03;;;128.20;1971.20;;;;;;4914078;29;20059;-66
2021/01/10 07:39:32;;;;;;;110.28;73.72;;;128.70;1920.00;;;;;;4914410;29;20064;-67
2021/01/10 07:42:12;;;;;;;158.75;103.70;;;128.70;1920.00;;;;;;4914078;29;20481;-69
2021/01/10 07:44:58;;;;;;;180.23;122.10;;;128.90;1894.40;;;;;;4918269;29;20032;-65
2021/01/10 07:47:29;;;;;;;82.20;52.20;;;128.60;1920.00;;;;;;4935233;29;20118;-70
2021/01/10 07:49:57;;;;;;;135.57;88.78;;;103.30;1971.20;;;;;;4935016;29;20026;-72
2021/01/10 07:52:41;;;;;;;95.18;60.35;;;128.10;1971.20;;;;;;4934898;29;20043;-72
2021/01/10 07:55:18;;;;;;;105.03;70.07;;;103.00;2022.40;;;;;;4935142;29;20036;-72
2021/01/10 07:57:59;;;;;;;119.40;78.32;;;103.20;1996.80;;;;;;4934671;29;20039;-71
2021/01/10 08:00:48;;;;;;;112.50;74.45;;;128.50;1971.20;;;;;;4934896;29;20023;-70
2021/01/10 08:03:27;;;;;;;101.35;67.22;;;153.80;1868.80;;;;;;4932088;29;20475;-70
2021/01/10 08:06:02;;;;;;;102.75;66.18;;;154.00;1843.20;;;;;;4933525;29;20408;-72
2021/01/10 08:08:46;;;;;;;105.88;72.00;;;154.10;1843.20;;;;;;4935786;29;20517;-69
2021/01/10 08:11:28;;;;;;;119.22;78.05;;;154.30;1817.60;;;;;;4938445;29;20545;-69
2021/01/10 08:13:53;;;;;;;100.22;69.70;;;153.80;1868.80;;;;;;4938597;29;20028;-69
2021/01/10 08:16:30;;;;;;;84.53;53.47;;;128.70;1920.00;;;;;;4938207;29;20031;-69
2021/01/10 08:19:03;;;;;;;95.35;61.25;;;103.20;2022.40;;;;;;4938359;29;20431;-69
2021/01/10 08:21:30;;;;;;;87.07;51.35;;;128.20;1971.20;;;;;;4938079;29;20024;-71
2021/01/10 08:23:57;;;;;;;100.60;63.45;;;103.10;2022.40;;;;;;4937984;29;20048;-72
2021/01/10 08:26:23;;;;;;;99.95;63.50;;;103.10;2048.00;;;;;;4942210;29;20119;-72
2021/01/10 08:28:53;;;;;;;115.13;72.78;;;103.20;2048.00;;;;;;4949231;28;20024;-70
2021/01/10 08:31:25;;;;;;;117.03;72.55;;;128.00;2022.40;;;;;;4947858;29;20413;-71
2021/01/10 08:34:16;;;;;;;93.15;61.30;;;128.40;1971.20;;;;;;4946581;29;20016;-71
2021/01/10 08:36:45;;;;;;;106.57;70.30;;;103.10;2048.00;;;;;;4946980;29;20492;-70
2021/01/10 08:39:14;;;;;;;102.43;64.72;;;128.10;2022.40;;;;;;4946686;29;20022;-71
2021/01/10 08:41:47;;;;;;;127.15;77.50;;;128.70;1945.60;;;;;;4945691;28;20082;-72
2021/01/10 08:44:16;;;;;;;109.55;69.13;;;153.80;1894.40;;;;;;4945578;28;20020;-70
2021/01/10 08:46:46;;;;;;;93.78;60.45;;;154.10;1868.80;;;;;;4934764;29;20091;-69
2021/01/10 08:49:29;;;;;;;101.45;61.95;;;154.10;1843.20;;;;;;4937348;29;20044;-69
2021/01/10 08:51:55;;;;;;;111.25;72.05;;;153.90;1868.80;;;;;;4936718;29;20028;-69
2021/01/10 08:54:25;;;;;;;142.10;85.85;;;154.00;1868.80;;;;;;4936849;29;20042;-68
2021/01/10 08:56:55;;;;;;;94.30;63.53;;;154.30;1868.80;;;;;;4937250;29;20032;-69
2021/01/10 08:59:22;;;;;;;98.18;64.95;;;154.30;1843.20;;;;;;4936772;29;20122;-69
2021/01/10 09:01:48;;;;;;;101.75;64.95;;;154.40;1843.20;;;;;;4936970;29;20032;-69
2021/01/10 09:04:15;;;;;;;122.68;76.35;;;154.30;1843.20;;;;;;4937744;29;20028;-69
2021/01/10 09:06:50;;;;;;;107.38;70.38;;;154.50;1843.20;;;;;;4945625;28;20024;-69
2021/01/10 09:09:23;;;;;;;142.25;97.75;;;179.30;1792.00;;;;;;4936942;28;20394;-69
2021/01/10 09:12:09;;;;;;;222.05;133.27;;;154.50;1792.00;;;;;;4936481;29;20111;-70
2021/01/10 09:14:43;;;;;;;188.30;135.70;;;154.50;1766.40;;;;;;4936268;29;20076;-70
2021/01/10 09:17:10;;;;;;;248.30;165.88;;;154.50;1792.00;;;;;;4947497;29;20039;-70
2021/01/10 09:19:37;;;;;;;125.97;84.88;;;154.50;1817.60;;;;;;4941685;28;20103;-69
2021/01/10 09:22:02;;;;;;;144.15;91.40;;;154.50;1817.60;;;;;;4942356;28;20023;-70
2021/01/10 09:24:32;;;;;;;118.50;75.70;;;179.20;1792.00;;;;;;4945396;29;20187;-70
2021/01/10 09:27:14;;;;;;;60.00;42.65;;;154.30;1817.60;;;;;;4945640;28;20484;-70
2021/01/10 09:29:41;;;;;;;147.55;102.40;;;154.40;1792.00;;;;;;4946903;29;20020;-70
2021/01/10 09:32:09;;;;;;;131.52;84.03;;;154.30;1817.60;;;;;;4942856;29;20032;-71
2021/01/10 09:34:35;;;;;;;95.15;60.42;;;154.30;1817.60;;;;;;4946053;28;20022;-71
2021/01/10 09:37:08;;;;;;;189.65;114.22;;;154.30;1817.60;;;;;;4945579;28;20034;-71
2021/01/10 09:39:44;;;;;;;111.40;69.63;;;154.10;1817.60;;;;;;4944387;29;20024;-69
2021/01/10 09:42:11;;;;;;;69.70;46.17;;;154.40;1817.60;;;;;;4943211;29;20071;-72
2021/01/10 09:44:37;;;;;;;53.65;35.95;;;154.50;1792.00;;;;;;4945104;28;20115;-68
2021/01/10 09:47:04;;;;;;;57.80;37.08;;;179.20;1792.00;;;;;;4946748;29;20067;-69
2021/01/10 09:49:31;;;;;;;126.60;82.65;;;179.20;1766.40;;;;;;4944967;29;20059;-71
2021/01/10 09:52:11;;;;;;;76.07;52.40;;;154.30;1766.40;;;;;;4937887;28;20036;-71
2021/01/10 09:54:37;;;;;;;109.93;71.07;;;154.30;1792.00;;;;;;4939630;29;20448;-70
2021/01/10 09:57:16;;;;;;;47.08;32.47;;;154.20;1792.00;;;;;;4947073;28;20565;-71
2021/01/10 09:59:54;;;;;;;81.30;52.17;;;154.10;1817.60;;;;;;4947019;28;20118;-71
2021/01/10 10:02:36;;;;;;;76.47;51.88;;;154.10;1817.60;;;;;;4938964;28;20075;-69
2021/01/10 10:05:17;;;;;;;140.77;84.22;;;154.10;1817.60;;;;;;4934902;29;20118;-71
2021/01/10 10:07:47;;;;;;;158.20;89.13;;;154.00;1817.60;;;;;;4936355;29;20047;-71
2021/01/10 10:10:21;;;;;;;116.72;70.05;;;154.00;1792.00;;;;;;4936230;29;20381;-73
2021/01/10 10:13:09;;;;;;;148.85;82.90;;;154.10;1817.60;;;;;;4936150;29;20155;-72
2021/01/10 10:15:40;;;;;;;65.13;38.83;;;154.20;1792.00;;;;;;4940609;29;20063;-71
2021/01/10 10:18:07;;;;;;;122.70;66.82;;;154.10;1792.00;;;;;;4955209;28;20027;-70
2021/01/10 10:20:33;;;;;;;141.30;79.95;;;154.20;1792.00;;;;;;4944449;28;20054;-70
2021/01/10 10:23:13;;;;;;;169.40;103.05;;;154.00;1792.00;;;;;;4935686;29;20052;-70
2021/01/10 10:25:43;;;;;;;261.70;149.75;;;154.10;1792.00;;;;;;4938484;29;20068;-71
2021/01/10 10:28:09;;;;;;;80.57;52.75;;;154.00;1817.60;;;;;;4935965;29;20063;-71
2021/01/10 10:30:35;;;;;;;102.18;61.47;;;154.00;1843.20;;;;;;4954705;28;20023;-70
2021/01/10 10:33:02;;;;;;;90.38;49.70;;;154.00;1843.20;;;;;;4955135;28;20031;-70
2021/01/10 10:35:28;;;;;;;69.53;44.40;;;154.00;1868.80;;;;;;4954749;28;20046;-71
2021/01/10 10:37:54;;;;;;;104.50;61.92;;;154.10;1817.60;;;;;;4954789;28;20024;-71
2021/01/10 10:40:20;;;;;;;166.48;93.13;;;154.10;1817.60;;;;;;4955181;28;20031;-71
2021/01/10 10:42:47;;;;;;;124.18;69.07;;;154.10;1792.00;;;;;;4954414;28;20114;-70
2021/01/10 10:45:13;;;;;;;167.77;91.35;;;153.90;1817.60;;;;;;4955012;28;20553;-72
2021/01/10 10:47:39;;;;;;;182.73;97.07;;;153.90;1843.20;;;;;;4953400;29;20493;-71
2021/01/10 10:50:06;;;;;;;267.38;138.45;;;153.90;1843.20;;;;;;4953697;29;20023;-72
2021/01/10 10:52:32;;;;;;;166.98;81.63;;;154.10;1817.60;;;;;;4954317;28;20039;-72
2021/01/10 10:54:58;;;;;;;126.13;70.93;;;154.20;1817.60;;;;;;4955014;28;20027;-70
2021/01/10 10:57:24;;;;;;;63.33;39.55;;;154.30;1817.60;;;;;;4954471;28;20537;-71
2021/01/10 10:59:50;;;;;;;112.07;71.72;;;154.50;1792.00;;;;;;4945823;28;20024;-71
2021/01/10 11:02:16;;;;;;;93.65;55.30;;;154.40;1792.00;;;;;;4935448;29;20031;-71
2021/01/10 11:04:45;;;;;;;88.55;53.30;;;154.10;1843.20;;;;;;4935185;29;20090;-70
2021/01/10 11:07:14;;;;;;;73.70;48.03;;;154.10;1843.20;;;;;;4935544;29;20118;-71
2021/01/10 11:09:41;;;;;;;72.80;44.72;;;154.10;1817.60;;;;;;4935277;29;20063;-71
2021/01/10 11:12:11;;;;;;;57.83;35.72;;;154.00;1843.20;;;;;;4935809;29;20364;-72
2021/01/10 11:14:37;;;;;;;76.07;48.50;;;154.30;1817.60;;;;;;4935448;29;20050;-70
2021/01/10 11:17:05;;;;;;;62.42;39.63;;;154.10;1843.20;;;;;;4939949;29;20043;-69
2021/01/10 11:19:30;;;;;;;86.38;52.88;;;154.10;1817.60;;;;;;4935070;29;20026;-71
2021/01/10 11:21:56;;;;;;;63.72;40.60;;;154.00;1843.20;;;;;;4952417;28;20027;-71
2021/01/10 11:24:22;;;;;;;58.78;34.50;;;153.80;1868.80;;;;;;4954211;28;20087;-72
2021/01/10 11:26:47;;;;;;;69.03;45.30;;;154.10;1843.20;;;;;;4954241;28;20045;-71
2021/01/10 11:29:14;;;;;;;66.95;41.15;;;153.70;1894.40;;;;;;4954587;28;20028;-71
2021/01/10 11:31:44;;;;;;;74.95;46.13;;;153.90;1868.80;;;;;;4954284;28;20549;-71
2021/01/10 11:34:12;;;;;;;51.42;32.15;;;154.20;1843.20;;;;;;4954299;28;20110;-71
2021/01/10 11:36:45;;;;;;;81.28;47.88;;;154.10;1817.60;;;;;;4940824;28;20051;-69
2021/01/10 11:39:12;;;;;;;62.58;37.05;;;154.10;1843.20;;;;;;4942110;28;20023;-70
2021/01/10 11:41:46;;;;;;;83.20;50.42;;;153.90;1817.60;;;;;;4954142;28;20031;-71
2021/01/10 11:44:13;;;;;;;85.63;46.13;;;153.80;1843.20;;;;;;4956720;28;20437;-71
2021/01/10 11:46:42;;;;;;;64.25;40.53;;;153.80;1843.20;;;;;;4958030;29;20040;-74
2021/01/10 11:49:09;;;;;;;70.95;44.00;;;153.80;1817.60;;;;;;4957772;28;20031;-71
2021/01/10 11:51:35;;;;;;;49.28;35.92;;;154.00;1817.60;;;;;;4957011;28;20035;-70
2021/01/10 11:54:01;;;;;;;82.38;50.80;;;154.20;1792.00;;;;;;4951559;28;20394;-69
2021/01/10 11:56:26;;;;;;;64.72;40.65;;;154.30;1766.40;;;;;;4948406;28;20029;-68
2021/01/10 11:58:52;;;;;;;222.18;120.40;;;154.10;1792.00;;;;;;4956671;29;20039;-68
2021/01/10 12:01:18;;;;;;;74.82;49.33;;;154.10;1817.60;;;;;;4957000;28;20023;-68
2021/01/10 12:03:44;;;;;;;64.47;42.70;;;154.00;1817.60;;;;;;4956860;29;20028;-69